Аэропорт: Жуляны. Киев

ICAO: UKKK

METAR:
2019-09-21 16:00:00
UKKK 211600Z 27005MPS 9999 -RA BKN044 12/02 Q1018 R26/70D NOSIG
METAR:
2019-09-21 11:04:00
TAF UKKK 211104Z 2112/2212 26006G11MPS 9999 BKN010 TEMPO 2112/2121 29009G14MPS 2100 -SHRA BR BKN006 SCT015CB TEMPO 2121/2212 30010G17MPS 1500 SHRA BR BKN004 BKN010CB